sensor_id;sensor_type;location;lat;lon;timestamp;P1;durP1;ratioP1;P2;durP2;ratioP2
70459;SDS011;57920;54.796;9.430;2023-02-19T00:00:58;3.47;;;1.70;;
70459;SDS011;57920;54.796;9.430;2023-02-19T00:03:24;2.17;;;1.23;;
70459;SDS011;57920;54.796;9.430;2023-02-19T00:05:50;3.37;;;1.30;;
70459;SDS011;57920;54.796;9.430;2023-02-19T00:08:16;2.13;;;1.33;;
70459;SDS011;57920;54.796;9.430;2023-02-19T00:10:41;3.87;;;1.87;;
70459;SDS011;57920;54.796;9.430;2023-02-19T00:13:07;1.23;;;0.90;;
70459;SDS011;57920;54.796;9.430;2023-02-19T00:15:33;2.17;;;1.27;;
70459;SDS011;57920;54.796;9.430;2023-02-19T00:17:58;1.40;;;1.03;;
70459;SDS011;57920;54.796;9.430;2023-02-19T00:20:24;3.63;;;1.20;;
70459;SDS011;57920;54.796;9.430;2023-02-19T00:22:49;3.03;;;1.43;;
70459;SDS011;57920;54.796;9.430;2023-02-19T00:25:15;4.70;;;1.80;;
70459;SDS011;57920;54.796;9.430;2023-02-19T00:27:41;2.30;;;1.60;;
70459;SDS011;57920;54.796;9.430;2023-02-19T00:30:06;2.97;;;1.63;;
70459;SDS011;57920;54.796;9.430;2023-02-19T00:32:32;6.10;;;1.67;;
70459;SDS011;57920;54.796;9.430;2023-02-19T00:34:58;2.40;;;1.33;;
70459;SDS011;57920;54.796;9.430;2023-02-19T00:37:23;3.33;;;1.40;;
70459;SDS011;57920;54.796;9.430;2023-02-19T00:39:49;3.50;;;1.40;;
70459;SDS011;57920;54.796;9.430;2023-02-19T00:42:14;3.13;;;1.60;;
70459;SDS011;57920;54.796;9.430;2023-02-19T00:44:40;3.37;;;1.47;;
70459;SDS011;57920;54.796;9.430;2023-02-19T00:47:05;3.00;;;1.80;;
70459;SDS011;57920;54.796;9.430;2023-02-19T00:49:31;1.53;;;1.30;;
70459;SDS011;57920;54.796;9.430;2023-02-19T00:51:57;1.90;;;1.20;;
70459;SDS011;57920;54.796;9.430;2023-02-19T00:54:22;3.20;;;1.63;;
70459;SDS011;57920;54.796;9.430;2023-02-19T00:56:48;1.67;;;1.30;;
70459;SDS011;57920;54.796;9.430;2023-02-19T00:59:14;3.73;;;1.47;;
70459;SDS011;57920;54.796;9.430;2023-02-19T01:01:40;3.23;;;1.33;;
70459;SDS011;57920;54.796;9.430;2023-02-19T01:04:06;3.60;;;1.63;;
70459;SDS011;57920;54.796;9.430;2023-02-19T01:06:32;3.40;;;1.30;;
70459;SDS011;57920;54.796;9.430;2023-02-19T01:08:59;2.73;;;1.23;;
70459;SDS011;57920;54.796;9.430;2023-02-19T01:11:24;3.13;;;1.50;;
70459;SDS011;57920;54.796;9.430;2023-02-19T01:13:51;3.90;;;1.73;;
70459;SDS011;57920;54.796;9.430;2023-02-19T01:16:21;1.67;;;1.13;;
70459;SDS011;57920;54.796;9.430;2023-02-19T01:18:51;2.83;;;1.10;;
70459;SDS011;57920;54.796;9.430;2023-02-19T01:21:19;3.17;;;1.53;;
70459;SDS011;57920;54.796;9.430;2023-02-19T01:23:47;3.27;;;1.30;;
70459;SDS011;57920;54.796;9.430;2023-02-19T01:26:17;2.87;;;1.40;;
70459;SDS011;57920;54.796;9.430;2023-02-19T01:28:46;2.70;;;1.30;;
70459;SDS011;57920;54.796;9.430;2023-02-19T01:31:13;3.47;;;1.47;;
70459;SDS011;57920;54.796;9.430;2023-02-19T01:33:43;3.03;;;1.20;;
70459;SDS011;57920;54.796;9.430;2023-02-19T01:36:10;3.27;;;1.30;;
70459;SDS011;57920;54.796;9.430;2023-02-19T01:38:35;1.60;;;1.03;;
70459;SDS011;57920;54.796;9.430;2023-02-19T01:41:02;1.70;;;1.30;;
70459;SDS011;57920;54.796;9.430;2023-02-19T01:43:31;3.60;;;1.80;;
70459;SDS011;57920;54.796;9.430;2023-02-19T01:45:57;2.40;;;1.03;;
70459;SDS011;57920;54.796;9.430;2023-02-19T01:48:56;2.37;;;1.07;;
70459;SDS011;57920;54.796;9.430;2023-02-19T01:51:16;2.70;;;1.40;;
70459;SDS011;57920;54.796;9.430;2023-02-19T01:53:45;2.80;;;1.10;;
70459;SDS011;57920;54.796;9.430;2023-02-19T01:56:15;4.53;;;1.40;;
70459;SDS011;57920;54.796;9.430;2023-02-19T01:58:43;1.93;;;1.43;;
70459;SDS011;57920;54.796;9.430;2023-02-19T02:01:10;2.90;;;1.20;;
70459;SDS011;57920;54.796;9.430;2023-02-19T02:03:36;3.17;;;1.30;;
70459;SDS011;57920;54.796;9.430;2023-02-19T02:06:08;1.50;;;1.13;;
70459;SDS011;57920;54.796;9.430;2023-02-19T02:08:39;3.43;;;1.33;;
70459;SDS011;57920;54.796;9.430;2023-02-19T02:11:24;1.70;;;1.07;;
70459;SDS011;57920;54.796;9.430;2023-02-19T02:13:51;2.77;;;1.40;;
70459;SDS011;57920;54.796;9.430;2023-02-19T02:27:40;3.63;;;1.30;;
70459;SDS011;57920;54.796;9.430;2023-02-19T02:35:42;1.90;;;1.10;;
70459;SDS011;57920;54.796;9.430;2023-02-19T02:38:19;2.90;;;1.30;;
70459;SDS011;57920;54.796;9.430;2023-02-19T02:40:47;3.50;;;1.20;;
70459;SDS011;57920;54.796;9.430;2023-02-19T02:43:13;3.40;;;1.40;;
70459;SDS011;57920;54.796;9.430;2023-02-19T02:45:38;2.27;;;1.03;;
70459;SDS011;57920;54.796;9.430;2023-02-19T02:50:32;2.70;;;1.27;;
70459;SDS011;57920;54.796;9.430;2023-02-19T02:53:07;3.63;;;1.40;;
70459;SDS011;57920;54.796;9.430;2023-02-19T02:55:55;2.80;;;1.40;;
70459;SDS011;57920;54.796;9.430;2023-02-19T02:58:24;2.30;;;1.23;;
70459;SDS011;57920;54.796;9.430;2023-02-19T03:00:52;3.83;;;1.50;;
70459;SDS011;57920;54.796;9.430;2023-02-19T03:03:41;3.07;;;1.30;;
70459;SDS011;57920;54.796;9.430;2023-02-19T03:06:09;2.27;;;1.27;;
70459;SDS011;57920;54.796;9.430;2023-02-19T03:08:40;1.63;;;1.07;;
70459;SDS011;57920;54.796;9.430;2023-02-19T03:11:09;3.87;;;1.13;;
70459;SDS011;57920;54.796;9.430;2023-02-19T03:13:58;4.90;;;1.33;;
70459;SDS011;57920;54.796;9.430;2023-02-19T03:16:57;2.50;;;1.00;;
70459;SDS011;57920;54.796;9.430;2023-02-19T03:19:48;4.53;;;1.20;;
70459;SDS011;57920;54.796;9.430;2023-02-19T03:22:17;2.33;;;1.00;;
70459;SDS011;57920;54.796;9.430;2023-02-19T03:24:53;3.13;;;1.40;;
70459;SDS011;57920;54.796;9.430;2023-02-19T03:27:43;2.50;;;1.33;;
70459;SDS011;57920;54.796;9.430;2023-02-19T03:30:13;1.97;;;1.20;;
70459;SDS011;57920;54.796;9.430;2023-02-19T03:32:44;3.20;;;1.13;;
70459;SDS011;57920;54.796;9.430;2023-02-19T03:35:15;2.77;;;1.23;;
70459;SDS011;57920;54.796;9.430;2023-02-19T03:41:08;2.40;;;1.10;;
70459;SDS011;57920;54.796;9.430;2023-02-19T03:43:43;2.00;;;1.07;;
70459;SDS011;57920;54.796;9.430;2023-02-19T03:46:25;1.90;;;1.20;;
70459;SDS011;57920;54.796;9.430;2023-02-19T03:49:17;1.80;;;0.80;;
70459;SDS011;57920;54.796;9.430;2023-02-19T03:52:15;2.37;;;0.97;;
70459;SDS011;57920;54.796;9.430;2023-02-19T03:57:06;4.70;;;1.17;;
70459;SDS011;57920;54.796;9.430;2023-02-19T03:59:47;1.87;;;0.87;;
70459;SDS011;57920;54.796;9.430;2023-02-19T04:05:10;3.23;;;1.20;;
70459;SDS011;57920;54.796;9.430;2023-02-19T04:07:41;1.57;;;0.80;;
70459;SDS011;57920;54.796;9.430;2023-02-19T04:10:10;2.47;;;1.53;;
70459;SDS011;57920;54.796;9.430;2023-02-19T04:12:38;2.40;;;0.87;;
70459;SDS011;57920;54.796;9.430;2023-02-19T04:15:12;2.03;;;0.97;;
70459;SDS011;57920;54.796;9.430;2023-02-19T04:17:43;3.20;;;1.00;;
70459;SDS011;57920;54.796;9.430;2023-02-19T04:20:20;1.50;;;1.00;;
70459;SDS011;57920;54.796;9.430;2023-02-19T04:22:48;4.07;;;1.40;;
70459;SDS011;57920;54.796;9.430;2023-02-19T04:25:14;4.60;;;1.33;;
70459;SDS011;57920;54.796;9.430;2023-02-19T04:27:44;1.57;;;1.00;;
70459;SDS011;57920;54.796;9.430;2023-02-19T04:30:11;3.57;;;1.30;;
70459;SDS011;57920;54.796;9.430;2023-02-19T04:32:38;2.90;;;1.30;;
70459;SDS011;57920;54.796;9.430;2023-02-19T04:35:04;2.10;;;1.20;;
70459;SDS011;57920;54.796;9.430;2023-02-19T04:37:30;3.10;;;1.10;;
70459;SDS011;57920;54.796;9.430;2023-02-19T04:39:55;3.67;;;1.40;;
70459;SDS011;57920;54.796;9.430;2023-02-19T04:42:21;2.87;;;1.47;;
70459;SDS011;57920;54.796;9.430;2023-02-19T04:44:46;1.37;;;0.80;;
70459;SDS011;57920;54.796;9.430;2023-02-19T04:47:12;1.93;;;1.10;;
70459;SDS011;57920;54.796;9.430;2023-02-19T04:49:41;1.30;;;0.90;;
70459;SDS011;57920;54.796;9.430;2023-02-19T04:52:08;1.73;;;0.77;;
70459;SDS011;57920;54.796;9.430;2023-02-19T04:54:33;1.73;;;1.00;;
70459;SDS011;57920;54.796;9.430;2023-02-19T04:57:04;2.00;;;1.20;;
70459;SDS011;57920;54.796;9.430;2023-02-19T04:59:29;2.80;;;1.37;;
70459;SDS011;57920;54.796;9.430;2023-02-19T05:01:55;4.10;;;1.20;;
70459;SDS011;57920;54.796;9.430;2023-02-19T05:04:21;2.00;;;1.07;;
70459;SDS011;57920;54.796;9.430;2023-02-19T05:06:47;1.17;;;1.03;;
70459;SDS011;57920;54.796;9.430;2023-02-19T05:09:13;3.20;;;0.97;;
70459;SDS011;57920;54.796;9.430;2023-02-19T05:11:39;1.87;;;1.00;;
70459;SDS011;57920;54.796;9.430;2023-02-19T05:14:05;2.80;;;1.00;;
70459;SDS011;57920;54.796;9.430;2023-02-19T05:16:30;1.33;;;0.77;;
70459;SDS011;57920;54.796;9.430;2023-02-19T05:18:57;1.87;;;0.90;;
70459;SDS011;57920;54.796;9.430;2023-02-19T05:21:22;1.60;;;0.70;;
70459;SDS011;57920;54.796;9.430;2023-02-19T05:23:48;2.13;;;0.93;;
70459;SDS011;57920;54.796;9.430;2023-02-19T05:26:15;2.07;;;1.10;;
70459;SDS011;57920;54.796;9.430;2023-02-19T05:28:43;2.07;;;0.90;;
70459;SDS011;57920;54.796;9.430;2023-02-19T05:31:10;2.90;;;1.00;;
70459;SDS011;57920;54.796;9.430;2023-02-19T05:33:35;1.50;;;0.80;;
70459;SDS011;57920;54.796;9.430;2023-02-19T05:36:06;3.27;;;1.23;;
70459;SDS011;57920;54.796;9.430;2023-02-19T05:38:33;2.17;;;1.10;;
70459;SDS011;57920;54.796;9.430;2023-02-19T05:41:09;1.70;;;1.00;;
70459;SDS011;57920;54.796;9.430;2023-02-19T05:43:40;2.23;;;1.23;;
70459;SDS011;57920;54.796;9.430;2023-02-19T05:46:07;3.07;;;1.03;;
70459;SDS011;57920;54.796;9.430;2023-02-19T05:48:33;1.10;;;0.60;;
70459;SDS011;57920;54.796;9.430;2023-02-19T05:51:18;1.07;;;0.63;;
70459;SDS011;57920;54.796;9.430;2023-02-19T05:53:45;1.83;;;0.70;;
70459;SDS011;57920;54.796;9.430;2023-02-19T05:56:57;2.03;;;0.97;;
70459;SDS011;57920;54.796;9.430;2023-02-19T05:58:58;2.30;;;1.07;;
70459;SDS011;57920;54.796;9.430;2023-02-19T06:01:30;3.13;;;1.30;;
70459;SDS011;57920;54.796;9.430;2023-02-19T06:03:56;1.33;;;0.70;;
70459;SDS011;57920;54.796;9.430;2023-02-19T06:06:22;1.90;;;1.10;;
70459;SDS011;57920;54.796;9.430;2023-02-19T06:08:48;3.10;;;1.10;;
70459;SDS011;57920;54.796;9.430;2023-02-19T06:11:15;0.93;;;0.60;;
70459;SDS011;57920;54.796;9.430;2023-02-19T06:13:41;2.23;;;0.87;;
70459;SDS011;57920;54.796;9.430;2023-02-19T06:16:07;3.03;;;1.00;;
70459;SDS011;57920;54.796;9.430;2023-02-19T06:18:34;2.47;;;0.93;;
70459;SDS011;57920;54.796;9.430;2023-02-19T06:21:00;2.77;;;1.03;;
70459;SDS011;57920;54.796;9.430;2023-02-19T06:23:27;1.47;;;0.93;;
70459;SDS011;57920;54.796;9.430;2023-02-19T06:25:53;1.60;;;0.80;;
70459;SDS011;57920;54.796;9.430;2023-02-19T06:28:19;1.47;;;0.83;;
70459;SDS011;57920;54.796;9.430;2023-02-19T06:30:44;1.23;;;0.73;;
70459;SDS011;57920;54.796;9.430;2023-02-19T06:33:10;3.47;;;1.33;;
70459;SDS011;57920;54.796;9.430;2023-02-19T06:35:35;1.57;;;0.70;;
70459;SDS011;57920;54.796;9.430;2023-02-19T06:38:01;3.17;;;0.83;;
70459;SDS011;57920;54.796;9.430;2023-02-19T06:40:27;1.87;;;0.90;;
70459;SDS011;57920;54.796;9.430;2023-02-19T06:42:53;0.87;;;0.53;;
70459;SDS011;57920;54.796;9.430;2023-02-19T06:45:18;2.53;;;0.90;;
70459;SDS011;57920;54.796;9.430;2023-02-19T06:47:44;1.10;;;0.77;;
70459;SDS011;57920;54.796;9.430;2023-02-19T06:50:09;1.63;;;0.93;;
70459;SDS011;57920;54.796;9.430;2023-02-19T06:52:35;2.03;;;0.70;;
70459;SDS011;57920;54.796;9.430;2023-02-19T06:55:00;2.00;;;0.87;;
70459;SDS011;57920;54.796;9.430;2023-02-19T06:57:26;1.20;;;0.80;;
70459;SDS011;57920;54.796;9.430;2023-02-19T06:59:51;3.47;;;1.27;;
70459;SDS011;57920;54.796;9.430;2023-02-19T07:02:17;2.43;;;0.77;;
70459;SDS011;57920;54.796;9.430;2023-02-19T07:04:42;1.27;;;0.70;;
70459;SDS011;57920;54.796;9.430;2023-02-19T07:07:11;1.23;;;0.70;;
70459;SDS011;57920;54.796;9.430;2023-02-19T07:09:36;1.03;;;0.80;;
70459;SDS011;57920;54.796;9.430;2023-02-19T07:12:02;2.03;;;1.00;;
70459;SDS011;57920;54.796;9.430;2023-02-19T07:14:28;2.23;;;1.00;;
70459;SDS011;57920;54.796;9.430;2023-02-19T07:16:54;2.10;;;0.83;;
70459;SDS011;57920;54.796;9.430;2023-02-19T07:19:19;1.87;;;0.73;;
70459;SDS011;57920;54.796;9.430;2023-02-19T07:21:45;1.97;;;0.77;;
70459;SDS011;57920;54.796;9.430;2023-02-19T07:24:10;2.97;;;0.80;;
70459;SDS011;57920;54.796;9.430;2023-02-19T07:26:36;0.83;;;0.50;;
70459;SDS011;57920;54.796;9.430;2023-02-19T07:29:02;3.30;;;0.77;;
70459;SDS011;57920;54.796;9.430;2023-02-19T07:31:28;2.00;;;0.90;;
70459;SDS011;57920;54.796;9.430;2023-02-19T07:33:54;1.97;;;1.10;;
70459;SDS011;57920;54.796;9.430;2023-02-19T07:36:20;3.90;;;0.87;;
70459;SDS011;57920;54.796;9.430;2023-02-19T07:38:57;1.73;;;0.63;;
70459;SDS011;57920;54.796;9.430;2023-02-19T07:41:23;1.67;;;0.80;;
70459;SDS011;57920;54.796;9.430;2023-02-19T07:43:50;3.33;;;1.10;;
70459;SDS011;57920;54.796;9.430;2023-02-19T07:46:16;2.83;;;1.07;;
70459;SDS011;57920;54.796;9.430;2023-02-19T07:48:41;1.57;;;0.50;;
70459;SDS011;57920;54.796;9.430;2023-02-19T07:51:10;2.27;;;1.17;;
70459;SDS011;57920;54.796;9.430;2023-02-19T07:53:37;1.53;;;0.70;;
70459;SDS011;57920;54.796;9.430;2023-02-19T07:56:04;1.33;;;0.80;;
70459;SDS011;57920;54.796;9.430;2023-02-19T07:58:31;2.50;;;0.60;;
70459;SDS011;57920;54.796;9.430;2023-02-19T08:01:04;1.53;;;0.60;;
70459;SDS011;57920;54.796;9.430;2023-02-19T08:03:41;1.10;;;0.60;;
70459;SDS011;57920;54.796;9.430;2023-02-19T08:06:07;2.73;;;0.90;;
70459;SDS011;57920;54.796;9.430;2023-02-19T08:08:35;2.03;;;0.73;;
70459;SDS011;57920;54.796;9.430;2023-02-19T08:11:01;1.90;;;0.80;;
70459;SDS011;57920;54.796;9.430;2023-02-19T08:13:47;1.50;;;0.80;;
70459;SDS011;57920;54.796;9.430;2023-02-19T08:16:14;2.47;;;0.87;;
70459;SDS011;57920;54.796;9.430;2023-02-19T08:18:43;1.63;;;0.83;;
70459;SDS011;57920;54.796;9.430;2023-02-19T08:21:09;4.57;;;0.93;;
70459;SDS011;57920;54.796;9.430;2023-02-19T08:23:35;1.43;;;0.80;;
70459;SDS011;57920;54.796;9.430;2023-02-19T08:26:01;1.20;;;0.80;;
70459;SDS011;57920;54.796;9.430;2023-02-19T08:28:28;2.07;;;0.70;;
70459;SDS011;57920;54.796;9.430;2023-02-19T08:30:57;1.23;;;0.77;;
70459;SDS011;57920;54.796;9.430;2023-02-19T08:33:24;1.80;;;0.90;;
70459;SDS011;57920;54.796;9.430;2023-02-19T08:35:50;1.97;;;0.90;;
70459;SDS011;57920;54.796;9.430;2023-02-19T08:38:15;1.43;;;0.70;;
70459;SDS011;57920;54.796;9.430;2023-02-19T08:40:41;1.80;;;0.87;;
70459;SDS011;57920;54.796;9.430;2023-02-19T08:43:08;1.37;;;0.63;;
70459;SDS011;57920;54.796;9.430;2023-02-19T08:45:37;2.07;;;0.53;;
70459;SDS011;57920;54.796;9.430;2023-02-19T08:48:03;0.93;;;0.60;;
70459;SDS011;57920;54.796;9.430;2023-02-19T08:50:29;1.00;;;0.70;;
70459;SDS011;57920;54.796;9.430;2023-02-19T08:52:55;2.93;;;0.87;;
70459;SDS011;57920;54.796;9.430;2023-02-19T08:55:22;1.20;;;0.70;;
70459;SDS011;57920;54.796;9.430;2023-02-19T08:57:48;2.00;;;0.60;;
70459;SDS011;57920;54.796;9.430;2023-02-19T09:00:13;2.07;;;0.83;;
70459;SDS011;57920;54.796;9.430;2023-02-19T09:02:39;2.00;;;0.67;;
70459;SDS011;57920;54.796;9.430;2023-02-19T09:05:05;1.13;;;0.73;;
70459;SDS011;57920;54.796;9.430;2023-02-19T09:07:30;1.50;;;0.90;;
70459;SDS011;57920;54.796;9.430;2023-02-19T09:09:56;1.67;;;0.67;;
70459;SDS011;57920;54.796;9.430;2023-02-19T09:12:23;0.40;;;0.40;;
70459;SDS011;57920;54.796;9.430;2023-02-19T09:14:49;3.27;;;0.77;;
70459;SDS011;57920;54.796;9.430;2023-02-19T09:17:14;3.57;;;0.73;;
70459;SDS011;57920;54.796;9.430;2023-02-19T09:19:40;1.63;;;0.80;;
70459;SDS011;57920;54.796;9.430;2023-02-19T09:22:06;3.07;;;0.80;;
70459;SDS011;57920;54.796;9.430;2023-02-19T09:24:31;1.07;;;0.63;;
70459;SDS011;57920;54.796;9.430;2023-02-19T09:27:02;0.73;;;0.60;;
70459;SDS011;57920;54.796;9.430;2023-02-19T09:29:28;1.37;;;0.87;;
70459;SDS011;57920;54.796;9.430;2023-02-19T09:31:57;1.73;;;0.70;;
70459;SDS011;57920;54.796;9.430;2023-02-19T09:34:24;1.63;;;0.87;;
70459;SDS011;57920;54.796;9.430;2023-02-19T09:36:51;1.77;;;0.90;;
70459;SDS011;57920;54.796;9.430;2023-02-19T09:39:17;1.83;;;0.70;;
70459;SDS011;57920;54.796;9.430;2023-02-19T09:41:44;1.20;;;0.70;;
70459;SDS011;57920;54.796;9.430;2023-02-19T09:44:32;2.20;;;0.80;;
70459;SDS011;57920;54.796;9.430;2023-02-19T09:47:00;1.83;;;0.70;;
70459;SDS011;57920;54.796;9.430;2023-02-19T09:49:34;1.17;;;0.63;;
70459;SDS011;57920;54.796;9.430;2023-02-19T09:52:13;1.53;;;0.80;;
70459;SDS011;57920;54.796;9.430;2023-02-19T09:54:43;1.00;;;0.70;;
70459;SDS011;57920;54.796;9.430;2023-02-19T09:57:15;0.77;;;0.50;;
70459;SDS011;57920;54.796;9.430;2023-02-19T09:59:50;2.87;;;1.00;;
70459;SDS011;57920;54.796;9.430;2023-02-19T10:02:29;1.70;;;0.97;;
70459;SDS011;57920;54.796;9.430;2023-02-19T10:04:55;2.63;;;0.60;;
70459;SDS011;57920;54.796;9.430;2023-02-19T10:07:22;0.83;;;0.73;;
70459;SDS011;57920;54.796;9.430;2023-02-19T10:09:52;1.10;;;0.47;;
70459;SDS011;57920;54.796;9.430;2023-02-19T10:12:27;1.30;;;0.73;;
70459;SDS011;57920;54.796;9.430;2023-02-19T10:15:00;1.10;;;0.60;;
70459;SDS011;57920;54.796;9.430;2023-02-19T10:17:40;2.37;;;0.80;;
70459;SDS011;57920;54.796;9.430;2023-02-19T10:20:08;1.53;;;0.70;;
70459;SDS011;57920;54.796;9.430;2023-02-19T10:22:43;1.43;;;0.63;;
70459;SDS011;57920;54.796;9.430;2023-02-19T10:25:15;1.47;;;0.50;;
70459;SDS011;57920;54.796;9.430;2023-02-19T10:27:41;0.67;;;0.40;;
70459;SDS011;57920;54.796;9.430;2023-02-19T10:30:15;1.90;;;0.70;;
70459;SDS011;57920;54.796;9.430;2023-02-19T10:32:57;2.13;;;0.70;;
70459;SDS011;57920;54.796;9.430;2023-02-19T10:35:28;0.70;;;0.60;;
70459;SDS011;57920;54.796;9.430;2023-02-19T10:37:54;2.10;;;0.90;;
70459;SDS011;57920;54.796;9.430;2023-02-19T10:40:22;1.60;;;0.80;;
70459;SDS011;57920;54.796;9.430;2023-02-19T10:42:55;1.57;;;0.77;;
70459;SDS011;57920;54.796;9.430;2023-02-19T10:45:31;2.00;;;0.60;;
70459;SDS011;57920;54.796;9.430;2023-02-19T10:48:05;2.33;;;1.10;;
70459;SDS011;57920;54.796;9.430;2023-02-19T10:50:42;3.97;;;0.83;;
70459;SDS011;57920;54.796;9.430;2023-02-19T10:53:21;1.10;;;0.63;;
70459;SDS011;57920;54.796;9.430;2023-02-19T10:55:47;2.13;;;0.90;;
70459;SDS011;57920;54.796;9.430;2023-02-19T10:58:29;1.37;;;1.00;;
70459;SDS011;57920;54.796;9.430;2023-02-19T11:01:11;1.13;;;0.80;;
70459;SDS011;57920;54.796;9.430;2023-02-19T11:03:49;1.53;;;0.90;;
70459;SDS011;57920;54.796;9.430;2023-02-19T11:06:17;1.97;;;0.70;;
70459;SDS011;57920;54.796;9.430;2023-02-19T11:08:53;1.30;;;0.63;;
70459;SDS011;57920;54.796;9.430;2023-02-19T11:11:34;0.67;;;0.60;;
70459;SDS011;57920;54.796;9.430;2023-02-19T11:14:12;1.20;;;0.70;;
70459;SDS011;57920;54.796;9.430;2023-02-19T11:16:41;1.80;;;0.53;;
70459;SDS011;57920;54.796;9.430;2023-02-19T11:19:20;0.83;;;0.53;;
70459;SDS011;57920;54.796;9.430;2023-02-19T11:22:26;1.20;;;0.50;;
70459;SDS011;57920;54.796;9.430;2023-02-19T11:24:53;2.47;;;0.70;;
70459;SDS011;57920;54.796;9.430;2023-02-19T11:27:20;1.60;;;0.67;;
70459;SDS011;57920;54.796;9.430;2023-02-19T11:29:47;1.57;;;0.80;;
70459;SDS011;57920;54.796;9.430;2023-02-19T11:34:45;1.53;;;0.63;;
70459;SDS011;57920;54.796;9.430;2023-02-19T11:37:12;1.10;;;0.70;;
70459;SDS011;57920;54.796;9.430;2023-02-19T11:39:43;1.83;;;0.77;;
70459;SDS011;57920;54.796;9.430;2023-02-19T11:50:47;1.40;;;0.53;;
70459;SDS011;57920;54.796;9.430;2023-02-19T11:53:28;0.63;;;0.30;;
70459;SDS011;57920;54.796;9.430;2023-02-19T12:13:09;0.77;;;0.53;;
70459;SDS011;57920;54.796;9.430;2023-02-19T12:15:56;0.87;;;0.33;;
70459;SDS011;57920;54.796;9.430;2023-02-19T12:24:03;1.37;;;0.73;;
70459;SDS011;57920;54.796;9.430;2023-02-19T12:29:23;1.63;;;0.70;;
70459;SDS011;57920;54.796;9.430;2023-02-19T12:35:23;1.87;;;0.70;;
70459;SDS011;57920;54.796;9.430;2023-02-19T12:38:29;1.27;;;0.53;;
70459;SDS011;57920;54.796;9.430;2023-02-19T12:43:50;0.60;;;0.27;;
70459;SDS011;57920;54.796;9.430;2023-02-19T12:46:26;1.43;;;0.70;;
70459;SDS011;57920;54.796;9.430;2023-02-19T12:49:06;0.83;;;0.50;;
70459;SDS011;57920;54.796;9.430;2023-02-19T12:51:43;1.43;;;0.40;;
70459;SDS011;57920;54.796;9.430;2023-02-19T12:54:19;0.47;;;0.47;;
70459;SDS011;57920;54.796;9.430;2023-02-19T12:56:52;2.00;;;0.60;;
70459;SDS011;57920;54.796;9.430;2023-02-19T12:59:37;0.70;;;0.40;;
70459;SDS011;57920;54.796;9.430;2023-02-19T13:02:39;0.93;;;0.40;;
70459;SDS011;57920;54.796;9.430;2023-02-19T13:05:19;2.03;;;0.53;;
70459;SDS011;57920;54.796;9.430;2023-02-19T13:08:11;1.07;;;0.47;;
70459;SDS011;57920;54.796;9.430;2023-02-19T13:11:01;1.13;;;0.40;;
70459;SDS011;57920;54.796;9.430;2023-02-19T13:13:33;0.40;;;0.33;;
70459;SDS011;57920;54.796;9.430;2023-02-19T13:16:06;0.50;;;0.50;;
70459;SDS011;57920;54.796;9.430;2023-02-19T13:18:41;1.90;;;0.70;;
70459;SDS011;57920;54.796;9.430;2023-02-19T13:21:12;1.03;;;0.40;;
70459;SDS011;57920;54.796;9.430;2023-02-19T13:24:00;1.10;;;0.30;;
70459;SDS011;57920;54.796;9.430;2023-02-19T13:26:41;1.70;;;0.40;;
70459;SDS011;57920;54.796;9.430;2023-02-19T13:37:26;1.17;;;0.43;;
70459;SDS011;57920;54.796;9.430;2023-02-19T13:39:55;0.87;;;0.30;;
70459;SDS011;57920;54.796;9.430;2023-02-19T13:42:33;1.17;;;0.60;;
70459;SDS011;57920;54.796;9.430;2023-02-19T13:45:03;0.53;;;0.23;;
70459;SDS011;57920;54.796;9.430;2023-02-19T13:47:57;0.40;;;0.40;;
70459;SDS011;57920;54.796;9.430;2023-02-19T13:52:56;1.13;;;0.53;;
70459;SDS011;57920;54.796;9.430;2023-02-19T14:01:04;0.50;;;0.27;;
70459;SDS011;57920;54.796;9.430;2023-02-19T14:06:02;1.33;;;0.60;;
70459;SDS011;57920;54.796;9.430;2023-02-19T14:12:03;0.77;;;0.43;;
70459;SDS011;57920;54.796;9.430;2023-02-19T14:19:50;1.50;;;0.50;;
70459;SDS011;57920;54.796;9.430;2023-02-19T14:25:32;1.40;;;0.60;;
70459;SDS011;57920;54.796;9.430;2023-02-19T14:35:56;2.57;;;0.80;;
70459;SDS011;57920;54.796;9.430;2023-02-19T14:38:39;1.20;;;0.53;;
70459;SDS011;57920;54.796;9.430;2023-02-19T14:41:10;0.67;;;0.40;;
70459;SDS011;57920;54.796;9.430;2023-02-19T14:43:38;0.50;;;0.50;;
70459;SDS011;57920;54.796;9.430;2023-02-19T14:46:12;1.07;;;0.40;;
70459;SDS011;57920;54.796;9.430;2023-02-19T14:48:47;1.03;;;0.47;;
70459;SDS011;57920;54.796;9.430;2023-02-19T14:51:24;2.00;;;0.50;;
70459;SDS011;57920;54.796;9.430;2023-02-19T14:53:55;2.90;;;0.67;;
70459;SDS011;57920;54.796;9.430;2023-02-19T14:56:26;0.67;;;0.53;;
70459;SDS011;57920;54.796;9.430;2023-02-19T15:01:31;0.50;;;0.50;;
70459;SDS011;57920;54.796;9.430;2023-02-19T15:03:56;0.40;;;0.30;;
70459;SDS011;57920;54.796;9.430;2023-02-19T15:06:22;0.83;;;0.53;;
70459;SDS011;57920;54.796;9.430;2023-02-19T15:08:52;1.80;;;0.90;;
70459;SDS011;57920;54.796;9.430;2023-02-19T15:11:25;1.53;;;0.60;;
70459;SDS011;57920;54.796;9.430;2023-02-19T15:13:58;1.03;;;0.50;;
70459;SDS011;57920;54.796;9.430;2023-02-19T15:16:30;1.33;;;0.40;;
70459;SDS011;57920;54.796;9.430;2023-02-19T15:18:58;0.50;;;0.20;;
70459;SDS011;57920;54.796;9.430;2023-02-19T15:21:30;0.40;;;0.33;;
70459;SDS011;57920;54.796;9.430;2023-02-19T15:24:04;1.40;;;0.60;;
70459;SDS011;57920;54.796;9.430;2023-02-19T15:26:34;1.30;;;0.40;;
70459;SDS011;57920;54.796;9.430;2023-02-19T15:29:23;0.87;;;0.50;;
70459;SDS011;57920;54.796;9.430;2023-02-19T15:31:49;0.83;;;0.27;;
70459;SDS011;57920;54.796;9.430;2023-02-19T15:34:24;0.83;;;0.50;;
70459;SDS011;57920;54.796;9.430;2023-02-19T15:36:59;0.50;;;0.37;;
70459;SDS011;57920;54.796;9.430;2023-02-19T15:39:33;1.00;;;0.40;;
70459;SDS011;57920;54.796;9.430;2023-02-19T15:42:04;1.63;;;0.53;;
70459;SDS011;57920;54.796;9.430;2023-02-19T15:47:05;0.60;;;0.23;;
70459;SDS011;57920;54.796;9.430;2023-02-19T15:49:45;2.17;;;0.63;;
70459;SDS011;57920;54.796;9.430;2023-02-19T15:52:20;1.73;;;0.57;;
70459;SDS011;57920;54.796;9.430;2023-02-19T15:57:53;1.53;;;0.57;;
70459;SDS011;57920;54.796;9.430;2023-02-19T16:00:47;0.60;;;0.40;;
70459;SDS011;57920;54.796;9.430;2023-02-19T16:03:18;0.80;;;0.53;;
70459;SDS011;57920;54.796;9.430;2023-02-19T16:05:46;1.27;;;0.60;;
70459;SDS011;57920;54.796;9.430;2023-02-19T16:08:26;0.20;;;0.20;;
70459;SDS011;57920;54.796;9.430;2023-02-19T16:10:57;0.80;;;0.50;;
70459;SDS011;57920;54.796;9.430;2023-02-19T16:13:25;1.37;;;0.30;;
70459;SDS011;57920;54.796;9.430;2023-02-19T16:16:02;1.77;;;0.60;;
70459;SDS011;57920;54.796;9.430;2023-02-19T16:18:42;1.40;;;0.60;;
70459;SDS011;57920;54.796;9.430;2023-02-19T16:21:12;0.40;;;0.23;;
70459;SDS011;57920;54.796;9.430;2023-02-19T16:23:41;1.53;;;0.37;;
70459;SDS011;57920;54.796;9.430;2023-02-19T16:26:08;0.50;;;0.30;;
70459;SDS011;57920;54.796;9.430;2023-02-19T16:28:36;1.13;;;0.60;;
70459;SDS011;57920;54.796;9.430;2023-02-19T16:31:04;0.73;;;0.37;;
70459;SDS011;57920;54.796;9.430;2023-02-19T16:44:28;0.87;;;0.50;;
70459;SDS011;57920;54.796;9.430;2023-02-19T16:46:49;1.47;;;0.60;;
70459;SDS011;57920;54.796;9.430;2023-02-19T16:49:16;1.03;;;0.50;;
70459;SDS011;57920;54.796;9.430;2023-02-19T16:51:43;1.00;;;0.40;;
70459;SDS011;57920;54.796;9.430;2023-02-19T16:54:10;1.13;;;0.47;;
70459;SDS011;57920;54.796;9.430;2023-02-19T16:56:36;0.67;;;0.50;;
70459;SDS011;57920;54.796;9.430;2023-02-19T16:59:02;0.43;;;0.27;;
70459;SDS011;57920;54.796;9.430;2023-02-19T17:01:27;2.47;;;0.60;;
70459;SDS011;57920;54.796;9.430;2023-02-19T17:03:56;1.43;;;0.63;;
70459;SDS011;57920;54.796;9.430;2023-02-19T17:06:24;1.00;;;0.60;;
70459;SDS011;57920;54.796;9.430;2023-02-19T17:08:50;1.23;;;0.60;;
70459;SDS011;57920;54.796;9.430;2023-02-19T17:11:15;1.23;;;0.50;;
70459;SDS011;57920;54.796;9.430;2023-02-19T17:13:42;0.83;;;0.60;;
70459;SDS011;57920;54.796;9.430;2023-02-19T17:16:31;1.43;;;0.60;;